sensor_id;sensor_type;location;lat;lon;timestamp;P1;durP1;ratioP1;P2;durP2;ratioP2
11305;SDS011;5708;50.660;6.778;2023-04-01T00:01:13;2.60;;;0.60;;
11305;SDS011;5708;50.660;6.778;2023-04-01T00:03:41;2.85;;;0.70;;
11305;SDS011;5708;50.660;6.778;2023-04-01T00:06:06;3.22;;;0.52;;
11305;SDS011;5708;50.660;6.778;2023-04-01T00:08:32;2.30;;;0.57;;
11305;SDS011;5708;50.660;6.778;2023-04-01T00:10:57;4.18;;;0.65;;
11305;SDS011;5708;50.660;6.778;2023-04-01T00:13:23;1.13;;;0.35;;
11305;SDS011;5708;50.660;6.778;2023-04-01T00:15:48;3.58;;;0.45;;
11305;SDS011;5708;50.660;6.778;2023-04-01T00:18:14;2.30;;;1.00;;
11305;SDS011;5708;50.660;6.778;2023-04-01T00:20:47;1.60;;;0.45;;
11305;SDS011;5708;50.660;6.778;2023-04-01T00:23:13;2.03;;;0.40;;
11305;SDS011;5708;50.660;6.778;2023-04-01T00:25:41;2.13;;;0.50;;
11305;SDS011;5708;50.660;6.778;2023-04-01T00:28:07;0.43;;;0.22;;
11305;SDS011;5708;50.660;6.778;2023-04-01T00:30:32;1.40;;;0.40;;
11305;SDS011;5708;50.660;6.778;2023-04-01T00:32:57;1.35;;;0.30;;
11305;SDS011;5708;50.660;6.778;2023-04-01T00:35:23;2.67;;;0.68;;
11305;SDS011;5708;50.660;6.778;2023-04-01T00:37:48;2.23;;;0.50;;
11305;SDS011;5708;50.660;6.778;2023-04-01T00:40:47;2.05;;;0.40;;
11305;SDS011;5708;50.660;6.778;2023-04-01T00:43:13;2.47;;;0.63;;
11305;SDS011;5708;50.660;6.778;2023-04-01T00:45:40;2.38;;;0.43;;
11305;SDS011;5708;50.660;6.778;2023-04-01T00:48:07;1.63;;;0.60;;
11305;SDS011;5708;50.660;6.778;2023-04-01T00:50:34;1.02;;;0.30;;
11305;SDS011;5708;50.660;6.778;2023-04-01T00:53:00;1.65;;;0.45;;
11305;SDS011;5708;50.660;6.778;2023-04-01T00:55:25;3.53;;;0.52;;
11305;SDS011;5708;50.660;6.778;2023-04-01T00:57:52;1.27;;;0.50;;
11305;SDS011;5708;50.660;6.778;2023-04-01T01:00:18;1.65;;;0.40;;
11305;SDS011;5708;50.660;6.778;2023-04-01T01:02:44;2.25;;;0.50;;
11305;SDS011;5708;50.660;6.778;2023-04-01T01:05:13;1.02;;;0.30;;
11305;SDS011;5708;50.660;6.778;2023-04-01T01:07:42;1.70;;;0.40;;
11305;SDS011;5708;50.660;6.778;2023-04-01T01:18:11;1.48;;;0.30;;
11305;SDS011;5708;50.660;6.778;2023-04-01T01:30:46;1.65;;;0.47;;
11305;SDS011;5708;50.660;6.778;2023-04-01T01:35:54;5.20;;;0.77;;
11305;SDS011;5708;50.660;6.778;2023-04-01T01:38:22;1.88;;;0.30;;
11305;SDS011;5708;50.660;6.778;2023-04-01T01:40:48;2.30;;;0.40;;
11305;SDS011;5708;50.660;6.778;2023-04-01T01:43:17;1.63;;;0.50;;
11305;SDS011;5708;50.660;6.778;2023-04-01T01:45:46;2.40;;;0.30;;
11305;SDS011;5708;50.660;6.778;2023-04-01T01:48:15;1.85;;;0.30;;
11305;SDS011;5708;50.660;6.778;2023-04-01T01:50:41;1.10;;;0.30;;
11305;SDS011;5708;50.660;6.778;2023-04-01T01:53:08;0.28;;;0.20;;
11305;SDS011;5708;50.660;6.778;2023-04-01T01:55:36;1.52;;;0.32;;
11305;SDS011;5708;50.660;6.778;2023-04-01T01:58:06;3.58;;;0.30;;
11305;SDS011;5708;50.660;6.778;2023-04-01T02:00:33;1.48;;;0.30;;
11305;SDS011;5708;50.660;6.778;2023-04-01T02:02:58;1.23;;;0.32;;
11305;SDS011;5708;50.660;6.778;2023-04-01T02:05:25;0.80;;;0.20;;
11305;SDS011;5708;50.660;6.778;2023-04-01T02:07:55;0.75;;;0.40;;
11305;SDS011;5708;50.660;6.778;2023-04-01T02:10:22;1.85;;;0.35;;
11305;SDS011;5708;50.660;6.778;2023-04-01T02:12:49;0.40;;;0.20;;
11305;SDS011;5708;50.660;6.778;2023-04-01T02:15:15;1.20;;;0.30;;
11305;SDS011;5708;50.660;6.778;2023-04-01T02:17:43;0.80;;;0.43;;
11305;SDS011;5708;50.660;6.778;2023-04-01T02:20:10;1.77;;;0.22;;
11305;SDS011;5708;50.660;6.778;2023-04-01T02:22:37;0.63;;;0.30;;
11305;SDS011;5708;50.660;6.778;2023-04-01T02:25:07;0.77;;;0.20;;
11305;SDS011;5708;50.660;6.778;2023-04-01T02:27:33;3.75;;;0.80;;
11305;SDS011;5708;50.660;6.778;2023-04-01T02:29:58;0.85;;;0.38;;
11305;SDS011;5708;50.660;6.778;2023-04-01T02:32:24;1.75;;;0.30;;
11305;SDS011;5708;50.660;6.778;2023-04-01T02:34:50;1.13;;;0.40;;
11305;SDS011;5708;50.660;6.778;2023-04-01T02:37:15;1.02;;;0.30;;
11305;SDS011;5708;50.660;6.778;2023-04-01T02:39:41;1.33;;;0.20;;
11305;SDS011;5708;50.660;6.778;2023-04-01T02:42:07;1.00;;;0.30;;
11305;SDS011;5708;50.660;6.778;2023-04-01T02:44:33;0.88;;;0.30;;
11305;SDS011;5708;50.660;6.778;2023-04-01T02:46:58;0.40;;;0.25;;
11305;SDS011;5708;50.660;6.778;2023-04-01T02:49:23;1.43;;;0.30;;
11305;SDS011;5708;50.660;6.778;2023-04-01T02:51:48;1.00;;;0.30;;
11305;SDS011;5708;50.660;6.778;2023-04-01T02:54:14;0.35;;;0.25;;
11305;SDS011;5708;50.660;6.778;2023-04-01T02:56:39;0.73;;;0.30;;
11305;SDS011;5708;50.660;6.778;2023-04-01T02:59:05;1.15;;;0.30;;
11305;SDS011;5708;50.660;6.778;2023-04-01T03:01:33;0.68;;;0.28;;
11305;SDS011;5708;50.660;6.778;2023-04-01T03:03:58;1.70;;;0.30;;
11305;SDS011;5708;50.660;6.778;2023-04-01T03:06:24;1.63;;;0.30;;
11305;SDS011;5708;50.660;6.778;2023-04-01T03:08:49;1.83;;;0.40;;
11305;SDS011;5708;50.660;6.778;2023-04-01T03:11:14;0.87;;;0.30;;
11305;SDS011;5708;50.660;6.778;2023-04-01T03:13:39;0.95;;;0.38;;
11305;SDS011;5708;50.660;6.778;2023-04-01T03:16:05;1.27;;;0.40;;
11305;SDS011;5708;50.660;6.778;2023-04-01T03:18:30;0.90;;;0.40;;
11305;SDS011;5708;50.660;6.778;2023-04-01T03:20:55;2.20;;;1.10;;
11305;SDS011;5708;50.660;6.778;2023-04-01T03:23:20;0.57;;;0.20;;
11305;SDS011;5708;50.660;6.778;2023-04-01T03:25:46;0.28;;;0.20;;
11305;SDS011;5708;50.660;6.778;2023-04-01T03:28:12;1.17;;;0.35;;
11305;SDS011;5708;50.660;6.778;2023-04-01T03:30:38;0.38;;;0.35;;
11305;SDS011;5708;50.660;6.778;2023-04-01T03:33:03;0.52;;;0.28;;
11305;SDS011;5708;50.660;6.778;2023-04-01T03:35:28;1.02;;;0.30;;
11305;SDS011;5708;50.660;6.778;2023-04-01T03:37:54;0.63;;;0.20;;
11305;SDS011;5708;50.660;6.778;2023-04-01T03:40:19;0.17;;;0.17;;
11305;SDS011;5708;50.660;6.778;2023-04-01T03:42:45;0.52;;;0.20;;
11305;SDS011;5708;50.660;6.778;2023-04-01T03:45:10;0.45;;;0.15;;
11305;SDS011;5708;50.660;6.778;2023-04-01T03:47:36;0.70;;;0.20;;
11305;SDS011;5708;50.660;6.778;2023-04-01T03:50:02;0.20;;;0.20;;
11305;SDS011;5708;50.660;6.778;2023-04-01T03:52:27;0.10;;;0.10;;
11305;SDS011;5708;50.660;6.778;2023-04-01T03:54:52;0.50;;;0.10;;
11305;SDS011;5708;50.660;6.778;2023-04-01T03:57:17;0.33;;;0.20;;
11305;SDS011;5708;50.660;6.778;2023-04-01T03:59:42;0.57;;;0.10;;
11305;SDS011;5708;50.660;6.778;2023-04-01T04:02:08;0.73;;;0.20;;
11305;SDS011;5708;50.660;6.778;2023-04-01T04:04:33;0.53;;;0.20;;
11305;SDS011;5708;50.660;6.778;2023-04-01T04:06:58;0.40;;;0.20;;
11305;SDS011;5708;50.660;6.778;2023-04-01T04:09:23;0.50;;;0.13;;
11305;SDS011;5708;50.660;6.778;2023-04-01T04:11:49;1.85;;;0.30;;
11305;SDS011;5708;50.660;6.778;2023-04-01T04:14:14;0.63;;;0.20;;
11305;SDS011;5708;50.660;6.778;2023-04-01T04:16:40;0.20;;;0.20;;
11305;SDS011;5708;50.660;6.778;2023-04-01T04:19:05;0.20;;;0.20;;
11305;SDS011;5708;50.660;6.778;2023-04-01T04:21:30;0.17;;;0.17;;
11305;SDS011;5708;50.660;6.778;2023-04-01T04:23:55;0.10;;;0.10;;
11305;SDS011;5708;50.660;6.778;2023-04-01T04:26:21;0.10;;;0.10;;
11305;SDS011;5708;50.660;6.778;2023-04-01T04:28:46;0.43;;;0.10;;
11305;SDS011;5708;50.660;6.778;2023-04-01T04:31:11;0.17;;;0.17;;
11305;SDS011;5708;50.660;6.778;2023-04-01T04:33:37;1.15;;;0.20;;
11305;SDS011;5708;50.660;6.778;2023-04-01T04:36:03;0.38;;;0.10;;
11305;SDS011;5708;50.660;6.778;2023-04-01T04:38:28;0.20;;;0.20;;
11305;SDS011;5708;50.660;6.778;2023-04-01T04:40:54;0.43;;;0.20;;
11305;SDS011;5708;50.660;6.778;2023-04-01T04:43:19;0.13;;;0.13;;
11305;SDS011;5708;50.660;6.778;2023-04-01T04:45:44;0.10;;;0.10;;
11305;SDS011;5708;50.660;6.778;2023-04-01T04:48:11;0.70;;;0.20;;
11305;SDS011;5708;50.660;6.778;2023-04-01T04:50:41;0.20;;;0.20;;
11305;SDS011;5708;50.660;6.778;2023-04-01T04:53:06;0.20;;;0.20;;
11305;SDS011;5708;50.660;6.778;2023-04-01T04:55:31;0.93;;;0.23;;
11305;SDS011;5708;50.660;6.778;2023-04-01T04:57:56;0.27;;;0.10;;
11305;SDS011;5708;50.660;6.778;2023-04-01T05:00:21;0.87;;;0.23;;
11305;SDS011;5708;50.660;6.778;2023-04-01T05:02:47;0.43;;;0.20;;
11305;SDS011;5708;50.660;6.778;2023-04-01T05:05:15;0.70;;;0.50;;
11305;SDS011;5708;50.660;6.778;2023-04-01T05:07:40;0.10;;;0.10;;
11305;SDS011;5708;50.660;6.778;2023-04-01T05:10:05;0.30;;;0.20;;
11305;SDS011;5708;50.660;6.778;2023-04-01T05:12:31;0.68;;;0.30;;
11305;SDS011;5708;50.660;6.778;2023-04-01T05:15:01;1.55;;;0.20;;
11305;SDS011;5708;50.660;6.778;2023-04-01T05:17:26;0.10;;;0.10;;
11305;SDS011;5708;50.660;6.778;2023-04-01T05:19:51;0.47;;;0.20;;
11305;SDS011;5708;50.660;6.778;2023-04-01T05:22:16;0.27;;;0.20;;
11305;SDS011;5708;50.660;6.778;2023-04-01T05:24:42;0.17;;;0.13;;
11305;SDS011;5708;50.660;6.778;2023-04-01T05:27:07;1.17;;;0.30;;
11305;SDS011;5708;50.660;6.778;2023-04-01T05:29:32;0.10;;;0.10;;
11305;SDS011;5708;50.660;6.778;2023-04-01T05:31:57;0.67;;;0.20;;
11305;SDS011;5708;50.660;6.778;2023-04-01T05:34:22;1.00;;;0.20;;
11305;SDS011;5708;50.660;6.778;2023-04-01T05:36:48;0.67;;;0.10;;
11305;SDS011;5708;50.660;6.778;2023-04-01T05:39:13;0.10;;;0.10;;
11305;SDS011;5708;50.660;6.778;2023-04-01T05:41:38;1.80;;;0.20;;
11305;SDS011;5708;50.660;6.778;2023-04-01T05:44:04;0.20;;;0.20;;
11305;SDS011;5708;50.660;6.778;2023-04-01T05:46:29;1.02;;;0.30;;
11305;SDS011;5708;50.660;6.778;2023-04-01T05:48:54;0.20;;;0.20;;
11305;SDS011;5708;50.660;6.778;2023-04-01T05:51:20;0.27;;;0.20;;
11305;SDS011;5708;50.660;6.778;2023-04-01T05:53:45;0.30;;;0.20;;
11305;SDS011;5708;50.660;6.778;2023-04-01T05:56:10;0.10;;;0.10;;
11305;SDS011;5708;50.660;6.778;2023-04-01T05:58:36;0.65;;;0.20;;
11305;SDS011;5708;50.660;6.778;2023-04-01T06:01:02;1.63;;;0.30;;
11305;SDS011;5708;50.660;6.778;2023-04-01T06:03:27;1.17;;;0.28;;
11305;SDS011;5708;50.660;6.778;2023-04-01T06:05:53;0.80;;;0.20;;
11305;SDS011;5708;50.660;6.778;2023-04-01T06:08:18;0.60;;;0.20;;
11305;SDS011;5708;50.660;6.778;2023-04-01T06:13:38;0.52;;;0.30;;
11305;SDS011;5708;50.660;6.778;2023-04-01T06:18:52;0.93;;;0.32;;
11305;SDS011;5708;50.660;6.778;2023-04-01T06:21:43;4.22;;;0.88;;
11305;SDS011;5708;50.660;6.778;2023-04-01T06:34:29;0.97;;;0.30;;
11305;SDS011;5708;50.660;6.778;2023-04-01T06:46:59;0.95;;;0.40;;
11305;SDS011;5708;50.660;6.778;2023-04-01T06:50:34;0.50;;;0.30;;
11305;SDS011;5708;50.660;6.778;2023-04-01T06:52:31;0.60;;;0.45;;
11305;SDS011;5708;50.660;6.778;2023-04-01T06:57:44;0.50;;;0.40;;
11305;SDS011;5708;50.660;6.778;2023-04-01T07:00:14;3.03;;;0.40;;
11305;SDS011;5708;50.660;6.778;2023-04-01T07:03:01;0.90;;;0.47;;
11305;SDS011;5708;50.660;6.778;2023-04-01T07:05:28;1.95;;;0.40;;
11305;SDS011;5708;50.660;6.778;2023-04-01T07:07:55;0.90;;;0.40;;
11305;SDS011;5708;50.660;6.778;2023-04-01T07:10:31;0.85;;;0.40;;
11305;SDS011;5708;50.660;6.778;2023-04-01T07:12:58;1.13;;;0.30;;
11305;SDS011;5708;50.660;6.778;2023-04-01T07:18:01;1.88;;;0.50;;
11305;SDS011;5708;50.660;6.778;2023-04-01T07:22:56;0.40;;;0.30;;
11305;SDS011;5708;50.660;6.778;2023-04-01T07:25:30;1.73;;;0.50;;
11305;SDS011;5708;50.660;6.778;2023-04-01T07:28:14;2.78;;;0.60;;
11305;SDS011;5708;50.660;6.778;2023-04-01T07:41:12;1.20;;;0.60;;
11305;SDS011;5708;50.660;6.778;2023-04-01T07:49:04;1.60;;;0.50;;
11305;SDS011;5708;50.660;6.778;2023-04-01T07:59:19;1.48;;;0.30;;
11305;SDS011;5708;50.660;6.778;2023-04-01T08:14:46;0.68;;;0.22;;
11305;SDS011;5708;50.660;6.778;2023-04-01T08:22:20;0.40;;;0.20;;
11305;SDS011;5708;50.660;6.778;2023-04-01T08:24:48;0.75;;;0.30;;
11305;SDS011;5708;50.660;6.778;2023-04-01T08:29:46;0.17;;;0.17;;
11305;SDS011;5708;50.660;6.778;2023-04-01T08:32:15;0.50;;;0.30;;
11305;SDS011;5708;50.660;6.778;2023-04-01T08:34:43;0.57;;;0.30;;
11305;SDS011;5708;50.660;6.778;2023-04-01T08:37:21;0.13;;;0.13;;
11305;SDS011;5708;50.660;6.778;2023-04-01T08:39:50;0.20;;;0.20;;
11305;SDS011;5708;50.660;6.778;2023-04-01T08:50:19;0.20;;;0.20;;
11305;SDS011;5708;50.660;6.778;2023-04-01T09:00:32;0.60;;;0.30;;
11305;SDS011;5708;50.660;6.778;2023-04-01T09:20:39;0.50;;;0.20;;
11305;SDS011;5708;50.660;6.778;2023-04-01T09:25:51;2.10;;;0.90;;
11305;SDS011;5708;50.660;6.778;2023-04-01T09:28:28;0.22;;;0.20;;
11305;SDS011;5708;50.660;6.778;2023-04-01T09:31:14;0.15;;;0.15;;
11305;SDS011;5708;50.660;6.778;2023-04-01T09:33:46;0.20;;;0.20;;
11305;SDS011;5708;50.660;6.778;2023-04-01T09:38:57;0.20;;;0.20;;
11305;SDS011;5708;50.660;6.778;2023-04-01T09:41:36;0.30;;;0.30;;
11305;SDS011;5708;50.660;6.778;2023-04-01T09:54:13;0.52;;;0.20;;
11305;SDS011;5708;50.660;6.778;2023-04-01T10:23:21;1.33;;;0.35;;
11305;SDS011;5708;50.660;6.778;2023-04-01T10:28:51;0.20;;;0.20;;
11305;SDS011;5708;50.660;6.778;2023-04-01T10:36:57;0.93;;;0.25;;
11305;SDS011;5708;50.660;6.778;2023-04-01T10:39:32;0.20;;;0.20;;
11305;SDS011;5708;50.660;6.778;2023-04-01T10:47:19;0.20;;;0.20;;
11305;SDS011;5708;50.660;6.778;2023-04-01T11:34:16;0.52;;;0.20;;
11305;SDS011;5708;50.660;6.778;2023-04-01T11:49:26;0.30;;;0.30;;
11305;SDS011;5708;50.660;6.778;2023-04-01T11:52:06;0.38;;;0.30;;
11305;SDS011;5708;50.660;6.778;2023-04-01T11:57:46;0.43;;;0.30;;
11305;SDS011;5708;50.660;6.778;2023-04-01T12:02:34;0.68;;;0.38;;
11305;SDS011;5708;50.660;6.778;2023-04-01T12:07:55;1.33;;;0.40;;
11305;SDS011;5708;50.660;6.778;2023-04-01T12:13:28;0.20;;;0.20;;
11305;SDS011;5708;50.660;6.778;2023-04-01T12:21:02;0.30;;;0.25;;
11305;SDS011;5708;50.660;6.778;2023-04-01T12:26:19;0.40;;;0.40;;
11305;SDS011;5708;50.660;6.778;2023-04-01T12:29:09;0.40;;;0.30;;
11305;SDS011;5708;50.660;6.778;2023-04-01T12:31:56;1.92;;;0.40;;
11305;SDS011;5708;50.660;6.778;2023-04-01T12:34:42;0.60;;;0.30;;
11305;SDS011;5708;50.660;6.778;2023-04-01T12:37:15;0.20;;;0.20;;
11305;SDS011;5708;50.660;6.778;2023-04-01T12:52:22;0.35;;;0.22;;
11305;SDS011;5708;50.660;6.778;2023-04-01T12:55:00;0.47;;;0.30;;
11305;SDS011;5708;50.660;6.778;2023-04-01T12:57:33;0.52;;;0.35;;
11305;SDS011;5708;50.660;6.778;2023-04-01T13:11:07;1.20;;;0.30;;
11305;SDS011;5708;50.660;6.778;2023-04-01T13:16:27;0.70;;;0.45;;
11305;SDS011;5708;50.660;6.778;2023-04-01T13:26:17;1.23;;;0.20;;
11305;SDS011;5708;50.660;6.778;2023-04-01T13:44:11;1.60;;;0.50;;
11305;SDS011;5708;50.660;6.778;2023-04-01T14:13:07;0.50;;;0.47;;
11305;SDS011;5708;50.660;6.778;2023-04-01T14:15:37;0.63;;;0.40;;
11305;SDS011;5708;50.660;6.778;2023-04-01T14:18:27;0.60;;;0.57;;
11305;SDS011;5708;50.660;6.778;2023-04-01T14:21:39;1.23;;;0.90;;
11305;SDS011;5708;50.660;6.778;2023-04-01T14:26:30;0.52;;;0.45;;
11305;SDS011;5708;50.660;6.778;2023-04-01T14:29:16;1.00;;;0.60;;
11305;SDS011;5708;50.660;6.778;2023-04-01T14:32:06;0.60;;;0.40;;
11305;SDS011;5708;50.660;6.778;2023-04-01T14:47:53;1.05;;;0.50;;
11305;SDS011;5708;50.660;6.778;2023-04-01T14:50:29;0.43;;;0.40;;
11305;SDS011;5708;50.660;6.778;2023-04-01T14:53:38;0.57;;;0.30;;
11305;SDS011;5708;50.660;6.778;2023-04-01T14:58:13;0.57;;;0.40;;
11305;SDS011;5708;50.660;6.778;2023-04-01T15:00:48;0.35;;;0.35;;
11305;SDS011;5708;50.660;6.778;2023-04-01T15:03:18;0.57;;;0.40;;
11305;SDS011;5708;50.660;6.778;2023-04-01T15:08:21;0.63;;;0.40;;
11305;SDS011;5708;50.660;6.778;2023-04-01T15:21:18;0.70;;;0.30;;
11305;SDS011;5708;50.660;6.778;2023-04-01T15:31:31;1.75;;;0.68;;
11305;SDS011;5708;50.660;6.778;2023-04-01T15:34:11;1.45;;;0.70;;
11305;SDS011;5708;50.660;6.778;2023-04-01T15:39:24;0.75;;;0.57;;
11305;SDS011;5708;50.660;6.778;2023-04-01T15:46:52;1.43;;;0.67;;
11305;SDS011;5708;50.660;6.778;2023-04-01T15:54:48;1.58;;;0.80;;
11305;SDS011;5708;50.660;6.778;2023-04-01T16:02:34;2.30;;;1.15;;
11305;SDS011;5708;50.660;6.778;2023-04-01T16:05:08;1.10;;;0.80;;
11305;SDS011;5708;50.660;6.778;2023-04-01T16:15:27;1.02;;;0.57;;
11305;SDS011;5708;50.660;6.778;2023-04-01T16:20:35;1.80;;;0.50;;
11305;SDS011;5708;50.660;6.778;2023-04-01T16:25:44;0.50;;;0.40;;
11305;SDS011;5708;50.660;6.778;2023-04-01T16:28:32;0.95;;;0.40;;
11305;SDS011;5708;50.660;6.778;2023-04-01T16:33:30;1.50;;;0.60;;
11305;SDS011;5708;50.660;6.778;2023-04-01T16:43:26;0.95;;;0.60;;
11305;SDS011;5708;50.660;6.778;2023-04-01T16:49:13;1.33;;;0.77;;
11305;SDS011;5708;50.660;6.778;2023-04-01T16:51:14;1.70;;;0.70;;
11305;SDS011;5708;50.660;6.778;2023-04-01T16:53:41;0.50;;;0.40;;
11305;SDS011;5708;50.660;6.778;2023-04-01T16:56:25;0.50;;;0.50;;
11305;SDS011;5708;50.660;6.778;2023-04-01T16:59:03;0.90;;;0.50;;
11305;SDS011;5708;50.660;6.778;2023-04-01T17:02:16;0.88;;;0.55;;
11305;SDS011;5708;50.660;6.778;2023-04-01T17:07:38;0.95;;;0.50;;
11305;SDS011;5708;50.660;6.778;2023-04-01T17:14:59;1.52;;;0.55;;
11305;SDS011;5708;50.660;6.778;2023-04-01T17:22:33;1.83;;;0.80;;
11305;SDS011;5708;50.660;6.778;2023-04-01T17:27:42;1.10;;;0.80;;
11305;SDS011;5708;50.660;6.778;2023-04-01T17:37:37;3.80;;;1.25;;
11305;SDS011;5708;50.660;6.778;2023-04-01T17:45:47;1.08;;;0.90;;
11305;SDS011;5708;50.660;6.778;2023-04-01T17:48:21;1.10;;;1.00;;
11305;SDS011;5708;50.660;6.778;2023-04-01T18:05:20;1.75;;;1.20;;
11305;SDS011;5708;50.660;6.778;2023-04-01T18:12:09;2.20;;;1.13;;
11305;SDS011;5708;50.660;6.778;2023-04-01T18:17:25;2.00;;;1.25;;
11305;SDS011;5708;50.660;6.778;2023-04-01T18:20:06;2.65;;;1.30;;
11305;SDS011;5708;50.660;6.778;2023-04-01T18:27:42;4.00;;;1.70;;
11305;SDS011;5708;50.660;6.778;2023-04-01T18:32:44;3.80;;;1.83;;
11305;SDS011;5708;50.660;6.778;2023-04-01T18:35:34;1.90;;;1.20;;
11305;SDS011;5708;50.660;6.778;2023-04-01T18:38:14;3.17;;;1.52;;
11305;SDS011;5708;50.660;6.778;2023-04-01T18:43:32;3.13;;;1.83;;
11305;SDS011;5708;50.660;6.778;2023-04-01T18:46:08;2.90;;;1.98;;
11305;SDS011;5708;50.660;6.778;2023-04-01T18:54:08;4.60;;;1.52;;
11305;SDS011;5708;50.660;6.778;2023-04-01T18:56:35;1.95;;;1.17;;
11305;SDS011;5708;50.660;6.778;2023-04-01T19:06:56;1.17;;;0.88;;
11305;SDS011;5708;50.660;6.778;2023-04-01T19:09:27;2.40;;;0.80;;
11305;SDS011;5708;50.660;6.778;2023-04-01T19:14:27;1.20;;;0.70;;
11305;SDS011;5708;50.660;6.778;2023-04-01T19:17:09;0.90;;;0.70;;
11305;SDS011;5708;50.660;6.778;2023-04-01T19:34:49;1.13;;;0.75;;
11305;SDS011;5708;50.660;6.778;2023-04-01T19:37:27;1.45;;;0.73;;
11305;SDS011;5708;50.660;6.778;2023-04-01T19:50:54;1.20;;;0.80;;
11305;SDS011;5708;50.660;6.778;2023-04-01T19:56:12;0.80;;;0.70;;
11305;SDS011;5708;50.660;6.778;2023-04-01T19:58:45;1.85;;;0.70;;
11305;SDS011;5708;50.660;6.778;2023-04-01T20:01:17;1.27;;;0.80;;
11305;SDS011;5708;50.660;6.778;2023-04-01T20:03:54;2.20;;;1.05;;
11305;SDS011;5708;50.660;6.778;2023-04-01T20:06:27;1.92;;;0.90;;
11305;SDS011;5708;50.660;6.778;2023-04-01T20:20:14;1.13;;;0.77;;
11305;SDS011;5708;50.660;6.778;2023-04-01T20:22:27;1.75;;;0.80;;
11305;SDS011;5708;50.660;6.778;2023-04-01T20:24:53;1.63;;;0.80;;
11305;SDS011;5708;50.660;6.778;2023-04-01T20:27:32;0.80;;;0.70;;
11305;SDS011;5708;50.660;6.778;2023-04-01T20:30:19;1.45;;;0.88;;
11305;SDS011;5708;50.660;6.778;2023-04-01T20:33:10;2.03;;;0.90;;
11305;SDS011;5708;50.660;6.778;2023-04-01T20:40:49;1.58;;;0.80;;
11305;SDS011;5708;50.660;6.778;2023-04-01T20:43:29;1.35;;;0.80;;
11305;SDS011;5708;50.660;6.778;2023-04-01T20:46:03;1.60;;;0.65;;
11305;SDS011;5708;50.660;6.778;2023-04-01T20:51:14;1.05;;;0.75;;
11305;SDS011;5708;50.660;6.778;2023-04-01T20:53:42;1.90;;;0.90;;
11305;SDS011;5708;50.660;6.778;2023-04-01T20:56:17;0.90;;;0.70;;
11305;SDS011;5708;50.660;6.778;2023-04-01T21:32:29;1.17;;;0.80;;
11305;SDS011;5708;50.660;6.778;2023-04-01T21:35:00;2.35;;;1.00;;
11305;SDS011;5708;50.660;6.778;2023-04-01T21:42:34;0.90;;;0.75;;
11305;SDS011;5708;50.660;6.778;2023-04-01T21:45:21;1.88;;;1.00;;
11305;SDS011;5708;50.660;6.778;2023-04-01T21:53:37;2.03;;;0.80;;
11305;SDS011;5708;50.660;6.778;2023-04-01T22:06:47;2.35;;;1.00;;
11305;SDS011;5708;50.660;6.778;2023-04-01T22:25:05;1.00;;;0.70;;
11305;SDS011;5708;50.660;6.778;2023-04-01T22:30:22;0.90;;;0.75;;
11305;SDS011;5708;50.660;6.778;2023-04-01T22:32:49;1.10;;;0.68;;
11305;SDS011;5708;50.660;6.778;2023-04-01T22:42:57;1.05;;;0.60;;
11305;SDS011;5708;50.660;6.778;2023-04-01T22:45:30;1.73;;;0.82;;
11305;SDS011;5708;50.660;6.778;2023-04-01T22:55:44;3.50;;;1.17;;
11305;SDS011;5708;50.660;6.778;2023-04-01T22:58:14;1.15;;;0.70;;
11305;SDS011;5708;50.660;6.778;2023-04-01T23:00:48;0.95;;;0.60;;
11305;SDS011;5708;50.660;6.778;2023-04-01T23:03:18;2.05;;;0.70;;
11305;SDS011;5708;50.660;6.778;2023-04-01T23:05:55;1.52;;;0.98;;
11305;SDS011;5708;50.660;6.778;2023-04-01T23:11:09;1.38;;;1.00;;
11305;SDS011;5708;50.660;6.778;2023-04-01T23:13:39;1.45;;;0.90;;
11305;SDS011;5708;50.660;6.778;2023-04-01T23:16:07;1.20;;;0.90;;
11305;SDS011;5708;50.660;6.778;2023-04-01T23:21:15;1.10;;;0.90;;
11305;SDS011;5708;50.660;6.778;2023-04-01T23:29:16;3.05;;;2.10;;
11305;SDS011;5708;50.660;6.778;2023-04-01T23:31:42;5.65;;;2.83;;
11305;SDS011;5708;50.660;6.778;2023-04-01T23:36:49;15.43;;;10.30;;
11305;SDS011;5708;50.660;6.778;2023-04-01T23:42:03;19.85;;;14.63;;
11305;SDS011;5708;50.660;6.778;2023-04-01T23:44:29;18.92;;;14.55;;
11305;SDS011;5708;50.660;6.778;2023-04-01T23:46:55;21.17;;;14.90;;
11305;SDS011;5708;50.660;6.778;2023-04-01T23:49:23;19.17;;;13.35;;
11305;SDS011;5708;50.660;6.778;2023-04-01T23:51:52;16.48;;;12.95;;
11305;SDS011;5708;50.660;6.778;2023-04-01T23:54:41;17.63;;;12.68;;
11305;SDS011;5708;50.660;6.778;2023-04-01T23:57:09;18.45;;;12.63;;
11305;SDS011;5708;50.660;6.778;2023-04-01T23:59:35;20.45;;;13.68;;
